x

Isle Of Shoals, Nh (iosn3) Weather Station

2:00 - Thu 17th Aug 2017 All times are EDT. -4 hours from GMT.

  • Wind
    15mph, 16mph gusts
  • Ar Temp 74°f
  • Sea Pressure 1014.9mb
  • Isle Of Shoals, Nh
  • Isle Of Shoals, Nh

More Historic Weather Station data

Upgrade to MSW Pro to gain access to the past 30 days of data for over 8000 Wavebouys and Weather Stations around the globe.

Join

Comparision Forecast

View Surf forecast
   
Qui 08/17 2:00 15 16 mph 1014.9mb 74f
1:00 11 11 mph 1015.7mb 72f
12:00 11 13 mph 1016.1mb 70f
11:00 10 11 mph 1016.7mb 64f
10:00 7 7 mph 1017.3mb 63f
9:00 11 11 mph 1017.3mb 60f
8:00 11 13 mph 1017.4mb 59f
7:00 13 14 mph 1017.1mb 60f
6:00 10 11 mph 1016.5mb 59f
5:00 9 9 mph 1016.2mb 60f
4:00 7 8 mph 1016.4mb 60f
3:00 10 11 mph 1016mb 62f
2:00 10 11 mph 1016.1mb 62f
1:00 6 7 mph 1016mb 63f
12:00 11 11 mph 1015.8mb 65f
Qua 08/16 11:00 14 14 mph 1015.6mb 66f
10:00 8 9 mph 1015.3mb 69f
9:00 9 10 mph 1014.8mb 72f
8:00 9 10 mph 1014.2mb 72f
7:00 13 14 mph 1013.2mb 75f
6:00 16 17 mph 1012.8mb 76f
5:00 18 21 mph 1012.4mb 75f
4:00 22 23 mph 1012.1mb 76f
3:00 17 18 mph 1012.2mb 75f
2:00 13 15 mph 1012.6mb 75f
1:00 13 14 mph 1012.5mb 74f
12:00 3 5 mph 1012.7mb 73f
11:00 10 11 mph 1012.7mb 74f
10:00 15 16 mph 1012.6mb 72f
9:00 9 10 mph 1012.4mb 69f
8:00 11 11 mph 1012mb 67f
7:00 13 13 mph 1011.9mb 66f
6:00 9 9 mph 1011.3mb 66f
5:00 11 11 mph 1010.6mb 67f
4:00 14 14 mph 1010.6mb 67f
3:00 16 17 mph 1010.5mb 67f
2:00 15 15 mph 1010.2mb 68f
1:00 13 14 mph 1010.3mb 67f
12:00 10 11 mph 1010.5mb 67f
Ter 08/15 11:00 20 21 mph 1010.5mb 69f
10:00 21 21 mph 1010.9mb 70f
9:00 23 24 mph 1010.7mb 70f
8:00 23 23 mph 1010.3mb 71f
7:00 18 20 mph 1011mb 70f
6:00 16 17 mph 1010.9mb 70f
5:00 16 17 mph 1010.9mb 71f
4:00 15 15 mph 1011.6mb 69f
3:00 10 10 mph 1012.1mb 69f
2:00 10 10 mph 1012mb 69f
1:00 9 9 mph 1012.4mb 68f
12:00 7 7 mph 1012.7mb 68f
11:00 8 8 mph 1013.3mb 67f
10:00 8 8 mph 1013.4mb 66f
9:00 6 6 mph 1013.5mb 66f
8:00 8 8 mph 1013.6mb 66f
7:00 6 7 mph 1013.5mb 66f
6:00 7 8 mph 1013.8mb 66f
5:00 8 9 mph 1013.6mb 67f
4:00 8 8 mph 1013.4mb 68f
3:00 7 7 mph 1013.6mb 68f
2:00 10 10 mph 1013.9mb 68f
1:00 14 14 mph 1014mb 69f
12:00 14 14 mph 1014.3mb 69f
Seg 08/14 11:00 11 13 mph 1014.5mb 69f
10:00 13 14 mph 1014.7mb 69f
9:00 11 13 mph 1014.9mb 70f
7:00 11 13 mph 1014.7mb 69f
6:00 14 14 mph 1014.7mb 70f
5:00 15 15 mph 1015.1mb 70f
4:00 13 14 mph 1015.5mb 70f
3:00 10 11 mph 1015.8mb 70f
2:00 8 9 mph 1016.2mb 70f
1:00 5 5 mph 1016.9mb 71f
12:00  -  0 mph 1017.4mb 71f
11:00  -  0 mph 1017.3mb 71f
10:00 5 6 mph 1017.7mb 67f
9:00 3 3 mph 1017.4mb 65f
8:00 2 3 mph 1017.8mb 63f
7:00 2 3 mph 1017.5mb 63f
6:00 8 8 mph 1016.9mb 63f
5:00 3 5 mph 1016.7mb 63f
4:00 8 9 mph 1016.4mb 65f
3:00 8 9 mph 1016.3mb 65f
2:00 11 11 mph 1015.4mb 69f
1:00 9 9 mph 1015.6mb 67f
12:00 5 6 mph 1015.3mb 69f
Dom 08/13 11:00 8 9 mph 1015.2mb 73f
10:00 13 13 mph 1014.6mb 74f
9:00 15 15 mph 1014.1mb 75f
8:00 14 15 mph 1013.3mb 78f